Time;durP1;ratioP1;P1;durP2;ratioP2;P2;SDS_P1;SDS_P2;PMS_P1;PMS_P2;Temp;Humidity;BMP_temperature;BMP_pressure;BME280_temperature;BME280_humidity;BME280_pressure;Samples;Min_cycle;Max_cycle;Signal;HPM_P1;HPM_P2
2021/08/27 00:01:13;;;;;;;9.02;1.70;;;;;;;13.70;77.72;102035.19;5090755;28;20324;-67
2021/08/27 00:03:38;;;;;;;6.70;1.60;;;;;;;13.72;77.64;102028.88;5089051;28;20032;-67
2021/08/27 00:06:03;;;;;;;7.65;1.75;;;;;;;13.72;78.04;102030.66;5089063;28;20405;-67
2021/08/27 00:08:29;;;;;;;9.50;1.80;;;;;;;13.69;78.21;102028.97;5090549;28;20078;-66
2021/08/27 00:10:54;;;;;;;8.18;1.92;;;;;;;13.68;78.08;102026.38;5090476;28;20053;-69
2021/08/27 00:13:19;;;;;;;9.80;1.80;;;;;;;13.63;78.35;102025.69;5088652;28;20024;-67
2021/08/27 00:15:45;;;;;;;8.82;1.77;;;;;;;13.59;78.79;102027.59;5090853;28;20394;-67
2021/08/27 00:18:11;;;;;;;6.00;1.60;;;;;;;13.54;78.86;102022.47;5088494;28;20157;-66
2021/08/27 00:20:38;;;;;;;10.77;2.10;;;;;;;13.47;79.59;102020.97;5089997;28;20412;-66
2021/08/27 00:23:04;;;;;;;10.77;1.88;;;;;;;13.45;79.51;102020.13;5089597;28;20130;-68
2021/08/27 00:25:29;;;;;;;5.13;1.70;;;;;;;13.40;79.85;102025.66;5087839;28;20028;-66
2021/08/27 00:27:54;;;;;;;7.68;1.77;;;;;;;13.38;79.96;102023.97;5088285;28;20344;-67
2021/08/27 00:30:19;;;;;;;6.10;1.52;;;;;;;13.34;80.09;102019.63;5089453;28;20486;-67
2021/08/27 00:32:45;;;;;;;7.80;1.77;;;;;;;13.32;80.37;102017.03;5088819;28;20028;-66
2021/08/27 00:35:10;;;;;;;9.48;1.65;;;;;;;13.30;80.46;102020.69;5090300;28;20032;-67
2021/08/27 00:37:36;;;;;;;10.40;1.92;;;;;;;13.32;80.68;102021.50;5088076;28;20052;-69
2021/08/27 00:40:03;;;;;;;9.23;1.60;;;;;;;13.31;80.23;102025.09;5089125;28;20070;-66
2021/08/27 00:42:28;;;;;;;9.35;1.75;;;;;;;13.30;80.65;102023.34;5088199;28;20031;-66
2021/08/27 00:44:54;;;;;;;10.35;1.90;;;;;;;13.28;80.67;102023.41;5090077;28;20075;-67
2021/08/27 00:47:19;;;;;;;7.15;1.65;;;;;;;13.27;80.38;102017.22;5089945;28;20096;-67
2021/08/27 00:49:46;;;;;;;5.70;1.80;;;;;;;13.25;80.97;102027.06;5088362;28;20028;-67
2021/08/27 00:52:12;;;;;;;10.18;2.10;;;;;;;13.26;80.71;102027.91;5087737;28;20108;-67
2021/08/27 00:54:42;;;;;;;9.88;2.13;;;;;;;13.24;80.90;102019.13;5089612;28;20107;-65
2021/08/27 00:57:08;;;;;;;7.40;2.10;;;;;;;13.21;80.88;102020.13;5089406;28;20089;-66
2021/08/27 00:59:37;;;;;;;7.22;1.60;;;;;;;13.20;80.93;102010.41;5087734;28;20449;-67
2021/08/27 01:02:03;;;;;;;8.63;1.75;;;;;;;13.19;80.80;102019.28;5083027;28;20032;-66
2021/08/27 01:04:30;;;;;;;8.35;2.22;;;;;;;13.18;81.20;102022.88;5069013;28;20123;-67
2021/08/27 01:07:04;;;;;;;12.13;1.77;;;;;;;13.15;81.16;102012.38;5068815;28;20112;-67
2021/08/27 01:09:46;;;;;;;11.82;2.10;;;;;;;13.12;81.41;102012.50;5069891;28;20043;-67
2021/08/27 01:12:20;;;;;;;6.25;1.80;;;;;;;13.09;81.82;102018.78;5069722;28;20055;-66
2021/08/27 01:14:56;;;;;;;10.13;2.33;;;;;;;13.08;81.28;102016.16;5069277;28;20032;-67
2021/08/27 01:17:27;;;;;;;9.43;2.33;;;;;;;13.07;81.19;102017.09;5069545;28;20129;-67
2021/08/27 01:20:20;;;;;;;11.23;1.90;;;;;;;13.07;81.36;102014.44;5068902;28;20044;-67
2021/08/27 01:23:14;;;;;;;7.63;1.95;;;;;;;13.06;81.47;102012.72;5033500;28;20075;-67
2021/08/27 01:25:47;;;;;;;9.13;2.45;;;;;;;13.06;81.99;102005.59;5045732;28;20060;-67
2021/08/27 01:28:14;;;;;;;9.20;2.05;;;;;;;13.07;81.22;102003.81;5046366;28;20112;-67
2021/08/27 01:31:07;;;;;;;11.05;2.00;;;;;;;13.08;81.43;102010.84;5066903;28;20028;-68
2021/08/27 01:33:38;;;;;;;10.38;1.92;;;;;;;13.08;81.44;102010.84;5032227;28;20101;-67
2021/08/27 01:36:05;;;;;;;9.85;2.35;;;;;;;13.08;81.24;102008.19;5048503;28;20029;-67
2021/08/27 01:38:35;;;;;;;10.45;2.00;;;;;;;13.07;81.33;102003.81;5048529;28;20029;-69
2021/08/27 01:41:02;;;;;;;10.63;2.13;;;;;;;13.09;80.93;102002.84;5047957;28;20513;-69
2021/08/27 01:43:29;;;;;;;11.05;2.33;;;;;;;13.14;80.68;102007.09;5049127;28;20135;-66
2021/08/27 01:45:58;;;;;;;11.13;1.92;;;;;;;13.15;80.33;102011.50;5030990;28;20464;-69
2021/08/27 01:48:26;;;;;;;10.27;2.38;;;;;;;13.17;80.50;102021.16;5048025;28;20140;-67
2021/08/27 01:50:54;;;;;;;11.15;2.05;;;;;;;13.22;79.82;102005.91;5048193;28;20143;-67
2021/08/27 01:53:22;;;;;;;11.07;2.10;;;;;;;13.27;79.58;102013.69;5049497;28;20462;-69
2021/08/27 01:55:48;;;;;;;12.18;2.20;;;;;;;13.26;79.67;102012.84;5049498;28;20084;-68
2021/08/27 01:58:13;;;;;;;6.85;1.75;;;;;;;13.24;79.41;102014.66;5047982;28;20079;-67
2021/08/27 02:00:39;;;;;;;8.23;2.10;;;;;;;13.21;79.65;102009.47;5048257;28;20085;-69
2021/08/27 02:03:06;;;;;;;8.05;2.17;;;;;;;13.19;79.48;102011.31;5048858;28;20476;-67
2021/08/27 02:05:32;;;;;;;9.30;2.03;;;;;;;13.16;79.89;102013.22;5049362;28;20037;-66
2021/08/27 02:07:59;;;;;;;7.50;1.92;;;;;;;13.18;79.22;102012.22;5048140;28;20037;-68
2021/08/27 02:10:24;;;;;;;10.18;2.20;;;;;;;13.15;79.46;102020.34;5047741;28;20105;-69
2021/08/27 02:12:50;;;;;;;8.82;2.40;;;;;;;13.08;79.99;102014.38;5046875;28;20360;-67
2021/08/27 02:15:16;;;;;;;7.80;2.00;;;;;;;13.04;80.17;102020.72;5049296;28;20029;-66
2021/08/27 02:17:41;;;;;;;9.65;1.98;;;;;;;13.03;80.23;102021.66;5048570;28;20057;-68
2021/08/27 02:20:07;;;;;;;7.70;2.10;;;;;;;13.00;80.45;102027.06;5047565;28;20155;-68
2021/08/27 02:22:34;;;;;;;9.30;2.28;;;;;;;12.95;80.68;102021.06;5047564;28;20065;-68
2021/08/27 02:25:02;;;;;;;11.43;2.25;;;;;;;12.92;80.73;102027.34;5048500;28;20112;-67
2021/08/27 02:27:29;;;;;;;8.25;2.47;;;;;;;12.89;81.01;102027.47;5048163;28;20029;-66
2021/08/27 02:29:57;;;;;;;6.18;1.90;;;;;;;12.88;81.07;102032.84;5047494;28;20393;-66
2021/08/27 02:32:25;;;;;;;13.48;2.30;;;;;;;12.89;81.09;102032.78;5047882;28;20025;-67
2021/08/27 02:34:51;;;;;;;9.27;1.92;;;;;;;12.85;81.20;102031.16;5048488;28;20043;-66
2021/08/27 02:37:20;;;;;;;9.73;2.78;;;;;;;12.80;81.62;102035.78;5048752;28;20120;-67
2021/08/27 02:39:45;;;;;;;8.85;2.45;;;;;;;12.74;81.96;102031.53;5047862;28;20068;-69
2021/08/27 02:42:12;;;;;;;8.80;2.33;;;;;;;12.76;81.81;102026.16;5047804;28;20473;-67
2021/08/27 02:44:38;;;;;;;6.63;1.80;;;;;;;12.72;81.96;102025.38;5047270;28;20052;-67
2021/08/27 02:47:04;;;;;;;12.95;2.40;;;;;;;12.70;81.83;102026.38;5049363;28;20025;-67
2021/08/27 02:49:29;;;;;;;7.88;2.20;;;;;;;12.66;81.85;102027.41;5029472;28;20357;-66
2021/08/27 02:52:04;;;;;;;9.15;2.03;;;;;;;12.64;82.41;102039.88;5047731;28;20029;-67
2021/08/27 02:54:34;;;;;;;9.65;2.03;;;;;;;12.61;82.18;102032.88;5047330;28;20426;-67
2021/08/27 02:57:04;;;;;;;13.82;2.25;;;;;;;12.60;82.96;102036.47;5048143;28;20048;-66
2021/08/27 02:59:31;;;;;;;7.63;2.17;;;;;;;12.62;82.23;102026.63;5064026;28;20421;-66
2021/08/27 03:01:58;;;;;;;12.20;2.47;;;;;;;12.64;82.63;102024.78;5067324;28;20042;-67
2021/08/27 03:04:36;;;;;;;6.55;2.10;;;;;;;12.70;82.03;102018.38;5067119;28;20099;-68
2021/08/27 03:07:06;;;;;;;12.07;2.30;;;;;;;12.71;81.85;102025.44;5065481;28;20080;-67
2021/08/27 03:09:42;;;;;;;9.25;2.00;;;;;;;12.73;81.78;102019.16;5065489;28;20055;-66
2021/08/27 03:12:12;;;;;;;10.98;2.10;;;;;;;12.79;80.82;102020.75;5067268;28;20036;-65
2021/08/27 03:14:41;;;;;;;9.63;2.22;;;;;;;12.82;80.61;102033.06;5066607;28;20017;-66
2021/08/27 03:17:15;;;;;;;12.23;2.00;;;;;;;12.83;80.33;102027.69;5065736;28;20090;-67
2021/08/27 03:20:30;;;;;;;7.57;1.90;;;;;;;12.86;80.13;102030.22;5048514;28;20116;-66
2021/08/27 03:23:04;;;;;;;6.30;2.00;;;;;;;12.86;79.83;102035.53;4861226;29;20132;-66
2021/08/27 03:25:31;;;;;;;9.95;2.10;;;;;;;12.83;80.38;102037.47;4856357;29;20529;-66
2021/08/27 03:28:03;;;;;;;8.48;1.83;;;;;;;12.86;79.80;102032.88;4855729;29;20401;-66
2021/08/27 03:30:31;;;;;;;9.32;2.00;;;;;;;12.85;79.75;102031.16;4855887;29;20033;-67
2021/08/27 03:32:59;;;;;;;5.05;1.92;;;;;;;12.81;79.77;102029.53;4856250;29;20098;-66
2021/08/27 03:35:26;;;;;;;7.70;1.80;;;;;;;12.77;80.20;102025.25;4855989;29;20199;-66
2021/08/27 03:37:55;;;;;;;8.00;1.95;;;;;;;12.72;80.01;102027.19;4856058;29;20029;-65
2021/08/27 03:40:22;;;;;;;11.45;2.45;;;;;;;12.68;80.20;102033.53;4855475;29;20092;-66
2021/08/27 03:42:48;;;;;;;10.63;1.83;;;;;;;12.59;80.50;102027.59;4855878;29;20070;-66
2021/08/27 03:45:18;;;;;;;9.07;2.15;;;;;;;12.54;81.09;102031.34;4855394;29;20045;-66
2021/08/27 03:47:45;;;;;;;8.90;2.00;;;;;;;12.52;81.02;102033.19;4855775;29;20037;-66
2021/08/27 03:50:12;;;;;;;7.63;1.90;;;;;;;12.46;81.48;102037.78;4855173;29;20096;-67
2021/08/27 03:52:40;;;;;;;5.97;1.80;;;;;;;12.41;81.52;102044.19;4855527;29;20085;-66
2021/08/27 03:55:06;;;;;;;10.38;1.90;;;;;;;12.38;81.92;102041.59;4855760;29;20068;-66
2021/08/27 03:57:32;;;;;;;5.30;2.00;;;;;;;12.37;82.21;102043.41;4856168;29;20424;-67
2021/08/27 03:59:59;;;;;;;9.75;1.92;;;;;;;12.39;81.81;102038.03;4965617;28;20143;-67
2021/08/27 04:02:26;;;;;;;8.70;2.13;;;;;;;12.35;82.19;102045.25;5031457;28;20022;-67
2021/08/27 04:05:20;;;;;;;17.63;2.53;;;;;;;12.37;82.73;102039.91;5030406;28;20030;-66
2021/08/27 04:07:47;;;;;;;9.93;2.65;;;;;;;12.41;82.63;102030.91;5030585;28;20116;-67
2021/08/27 04:10:15;;;;;;;12.23;2.55;;;;;;;12.44;82.97;102036.97;5030677;28;20029;-66
2021/08/27 04:12:40;;;;;;;10.70;2.45;;;;;;;12.53;82.80;102038.47;5031327;28;20032;-67
2021/08/27 04:15:11;;;;;;;9.02;1.85;;;;;;;12.63;82.17;102033.69;5029780;28;20026;-66
2021/08/27 04:17:38;;;;;;;8.07;2.10;;;;;;;12.66;82.34;102038.03;5030702;28;20453;-66
2021/08/27 04:20:06;;;;;;;7.35;2.10;;;;;;;12.70;82.80;102039.66;5029940;28;20037;-66
2021/08/27 04:22:32;;;;;;;9.48;2.50;;;;;;;12.76;82.51;102040.34;5050544;28;20045;-67
2021/08/27 04:24:57;;;;;;;7.13;1.83;;;;;;;12.82;82.50;102041.88;5069565;28;20033;-66
2021/08/27 04:27:23;;;;;;;13.95;2.25;;;;;;;12.87;82.38;102044.41;5069810;28;20028;-67
2021/08/27 04:29:48;;;;;;;9.05;2.13;;;;;;;12.85;82.30;102047.13;5069719;28;20033;-67
2021/08/27 04:32:13;;;;;;;10.43;2.35;;;;;;;12.84;82.25;102047.16;5066249;28;20491;-67
2021/08/27 04:34:39;;;;;;;8.93;2.25;;;;;;;12.78;82.64;102042.94;5069232;28;20397;-67
2021/08/27 04:37:04;;;;;;;10.68;2.50;;;;;;;12.72;82.99;102051.97;5069378;28;20035;-66
2021/08/27 04:39:29;;;;;;;7.85;2.15;;;;;;;12.67;83.26;102051.25;5069577;28;20039;-66
2021/08/27 04:41:55;;;;;;;6.20;2.17;;;;;;;12.63;83.09;102046.97;5069369;28;20047;-66
2021/08/27 04:44:20;;;;;;;11.32;2.50;;;;;;;12.60;83.57;102047.09;5051041;28;20109;-66
2021/08/27 04:46:45;;;;;;;9.70;2.20;;;;;;;12.57;83.35;102055.16;5049575;28;20112;-67
2021/08/27 04:49:11;;;;;;;7.47;2.20;;;;;;;12.56;83.37;102045.47;5049615;28;20024;-66
2021/08/27 04:51:36;;;;;;;7.63;2.35;;;;;;;12.54;83.28;102049.94;5049149;28;20043;-67
2021/08/27 04:54:02;;;;;;;7.93;2.13;;;;;;;12.52;83.57;102052.66;5051038;28;20021;-66
2021/08/27 04:56:27;;;;;;;7.65;1.90;;;;;;;12.50;83.25;102048.31;5049398;28;20100;-67
2021/08/27 04:58:52;;;;;;;7.40;2.28;;;;;;;12.46;83.64;102048.41;5048756;28;20128;-66
2021/08/27 05:01:18;;;;;;;8.20;2.58;;;;;;;12.45;83.52;102054.66;5048925;28;20021;-68
2021/08/27 05:03:43;;;;;;;10.75;2.35;;;;;;;12.41;84.24;102060.97;5050888;28;20457;-68
2021/08/27 05:06:08;;;;;;;13.15;2.25;;;;;;;12.45;83.99;102056.44;5048953;28;20032;-67
2021/08/27 05:08:34;;;;;;;10.23;2.05;;;;;;;12.44;83.27;102052.94;5048704;28;20029;-67
2021/08/27 05:10:59;;;;;;;8.82;2.00;;;;;;;12.52;83.53;102051.78;5048774;28;20094;-66
2021/08/27 05:13:25;;;;;;;7.07;2.03;;;;;;;12.56;82.86;102046.31;5049875;28;20127;-66
2021/08/27 05:15:50;;;;;;;7.70;2.00;;;;;;;12.63;82.61;102057.59;5049684;28;20037;-67
2021/08/27 05:18:15;;;;;;;5.93;1.83;;;;;;;12.66;82.25;102049.53;5048061;28;20437;-67
2021/08/27 05:20:41;;;;;;;9.52;1.80;;;;;;;12.67;82.48;102053.91;5049050;28;20071;-67
2021/08/27 05:23:06;;;;;;;8.95;1.75;;;;;;;12.73;82.12;102050.19;5048891;28;20389;-66
2021/08/27 05:25:31;;;;;;;6.45;1.98;;;;;;;12.79;81.90;102056.16;5050689;28;20042;-69
2021/08/27 05:27:57;;;;;;;4.63;1.67;;;;;;;12.88;81.45;102064.75;5048572;28;20025;-69
2021/08/27 05:30:22;;;;;;;9.38;1.83;;;;;;;12.93;81.12;102066.31;5048761;28;20043;-70
2021/08/27 05:32:49;;;;;;;7.18;1.80;;;;;;;12.99;81.13;102064.34;5048539;28;20025;-67
2021/08/27 05:35:15;;;;;;;7.75;1.67;;;;;;;13.04;81.19;102062.41;5049495;28;20538;-67
2021/08/27 05:37:41;;;;;;;7.45;1.88;;;;;;;13.05;81.05;102065.00;5049296;28;20160;-68
2021/08/27 05:40:08;;;;;;;9.93;2.08;;;;;;;13.11;80.90;102067.44;5048274;28;20100;-68
2021/08/27 05:42:35;;;;;;;5.15;1.55;;;;;;;13.23;81.08;102062.63;5049003;28;20513;-64
2021/08/27 05:45:02;;;;;;;5.57;2.15;;;;;;;13.43;80.15;102069.91;5049335;28;20140;-67
2021/08/27 05:47:27;;;;;;;6.68;2.13;;;;;;;13.58;79.50;102076.41;5041670;28;20199;-65
2021/08/27 05:49:52;;;;;;;9.27;1.73;;;;;;;13.66;78.79;102073.47;5029526;28;20542;-66
2021/08/27 05:52:18;;;;;;;9.73;2.05;;;;;;;13.73;78.27;102077.66;5040395;28;20052;-64
2021/08/27 05:54:43;;;;;;;6.70;2.30;;;;;;;13.72;78.53;102078.56;5048243;28;20116;-65
2021/08/27 05:57:08;;;;;;;8.65;2.10;;;;;;;13.68;78.83;102077.84;5050512;28;20028;-64
2021/08/27 05:59:34;;;;;;;5.75;2.25;;;;;;;13.68;78.28;102080.50;5048207;28;20033;-65
2021/08/27 06:01:59;;;;;;;13.90;2.10;;;;;;;13.69;78.62;102090.19;5048130;28;20033;-64
2021/08/27 06:04:24;;;;;;;7.97;2.05;;;;;;;13.72;78.55;102089.22;5047532;28;20448;-66
2021/08/27 06:06:53;;;;;;;10.60;2.10;;;;;;;13.77;78.44;102090.78;5049717;28;20216;-67
2021/08/27 06:09:18;;;;;;;8.13;2.15;;;;;;;13.80;78.37;102081.81;5049635;28;20033;-64
2021/08/27 06:11:43;;;;;;;5.13;1.73;;;;;;;13.89;78.34;102088.59;5048222;28;20021;-65
2021/08/27 06:14:09;;;;;;;7.70;1.92;;;;;;;14.00;77.98;102091.69;5048157;28;20156;-64
2021/08/27 06:16:34;;;;;;;12.30;2.60;;;;;;;14.14;77.50;102084.94;5047133;28;20069;-65
2021/08/27 06:19:03;;;;;;;6.00;1.95;;;;;;;14.22;77.36;102077.50;5040287;28;20378;-65
2021/08/27 06:21:29;;;;;;;8.73;2.15;;;;;;;14.33;77.58;102088.59;5048371;28;20117;-65
2021/08/27 06:23:54;;;;;;;7.88;1.90;;;;;;;14.47;77.00;102084.50;5048034;28;20135;-67
2021/08/27 06:26:20;;;;;;;8.43;2.25;;;;;;;14.55;76.49;102085.03;5056289;28;20035;-64
2021/08/27 06:28:45;;;;;;;11.70;2.00;;;;;;;14.64;76.51;102087.38;5066161;28;20096;-65
2021/08/27 06:31:10;;;;;;;6.40;2.20;;;;;;;14.65;76.25;102090.91;5068015;28;20039;-65
2021/08/27 06:33:36;;;;;;;8.18;2.15;;;;;;;14.62;76.09;102086.53;5062983;28;20021;-65
2021/08/27 06:36:02;;;;;;;12.98;2.30;;;;;;;14.61;76.21;102084.78;5048275;28;20021;-67
2021/08/27 06:38:27;;;;;;;8.38;2.10;;;;;;;14.62;76.68;102091.88;5049059;28;20025;-66
2021/08/27 06:40:56;;;;;;;10.27;2.45;;;;;;;14.65;76.45;102094.41;5047897;28;20056;-63
2021/08/27 06:43:26;;;;;;;20.13;2.33;;;;;;;14.71;75.76;102090.66;5041202;28;20129;-67
2021/08/27 06:45:52;;;;;;;10.75;2.35;;;;;;;14.75;76.24;102097.56;5038149;28;20459;-69
2021/08/27 06:48:17;;;;;;;8.98;2.15;;;;;;;14.82;76.49;102084.84;5040351;28;20040;-64
2021/08/27 06:50:42;;;;;;;7.72;2.10;;;;;;;14.87;75.96;102091.72;5040507;28;20083;-63
2021/08/27 06:53:08;;;;;;;6.72;2.10;;;;;;;14.96;75.42;102095.81;5018024;28;20034;-65
2021/08/27 06:55:34;;;;;;;8.02;1.77;;;;;;;15.06;75.24;102091.81;5037529;28;20063;-65
2021/08/27 06:58:01;;;;;;;7.90;1.90;;;;;;;15.12;75.16;102096.00;5049321;28;20040;-65
2021/08/27 07:00:26;;;;;;;6.18;2.08;;;;;;;15.21;74.90;102100.91;5066969;28;20044;-66
2021/08/27 07:02:52;;;;;;;9.95;2.08;;;;;;;15.28;75.18;102105.97;5066653;28;20536;-66
2021/08/27 07:05:18;;;;;;;7.43;1.90;;;;;;;15.35;74.71;102102.13;5044247;28;20389;-64
2021/08/27 07:07:43;;;;;;;4.60;2.20;;;;;;;15.50;74.36;102103.19;5044999;28;20395;-66
2021/08/27 07:10:08;;;;;;;12.30;2.65;;;;;;;15.57;74.10;102105.56;5053785;28;20051;-67
2021/08/27 07:12:34;;;;;;;6.88;2.22;;;;;;;15.63;74.93;102108.88;5053650;28;20360;-64
2021/08/27 07:14:59;;;;;;;6.28;1.70;;;;;;;15.68;74.24;102113.06;5061902;28;20093;-65
2021/08/27 07:17:24;;;;;;;6.03;1.67;;;;;;;15.72;74.11;102106.63;5052729;28;20322;-64
2021/08/27 07:19:50;;;;;;;7.80;2.10;;;;;;;15.78;73.91;102116.19;5057823;28;20032;-66
2021/08/27 07:22:16;;;;;;;5.78;2.03;;;;;;;15.82;73.49;102111.56;5070798;28;20067;-65
2021/08/27 07:24:42;;;;;;;7.00;1.95;;;;;;;15.83;73.58;102113.31;5071136;28;20146;-67
2021/08/27 07:27:09;;;;;;;7.43;2.38;;;;;;;15.87;72.45;102115.78;5038233;28;20060;-65
2021/08/27 07:29:35;;;;;;;10.15;2.30;;;;;;;16.00;71.58;102121.41;5048508;28;20044;-66
2021/08/27 07:32:01;;;;;;;8.25;2.30;;;;;;;16.12;71.41;102111.06;5041508;28;20371;-67
2021/08/27 07:34:26;;;;;;;4.65;1.80;;;;;;;16.29;71.10;102107.56;5035012;28;20135;-66
2021/08/27 07:36:52;;;;;;;8.38;1.75;;;;;;;16.37;69.63;102108.94;5040390;28;20119;-67
2021/08/27 07:39:17;;;;;;;7.57;1.92;;;;;;;16.43;69.02;102117.59;5058849;28;20044;-64
2021/08/27 07:41:42;;;;;;;5.75;1.58;;;;;;;16.47;68.56;102104.00;5069448;28;20398;-65
2021/08/27 07:44:07;;;;;;;8.50;1.88;;;;;;;16.50;69.14;102121.72;5053477;28;20485;-66
2021/08/27 07:46:33;;;;;;;9.18;2.28;;;;;;;16.53;68.32;102127.78;5039765;28;20033;-66
2021/08/27 07:48:58;;;;;;;7.57;2.55;;;;;;;16.57;67.39;102127.59;5040622;28;20353;-66
2021/08/27 07:51:23;;;;;;;6.28;2.20;;;;;;;16.61;67.83;102119.38;5058450;28;20399;-66
2021/08/27 07:53:49;;;;;;;7.43;1.83;;;;;;;16.69;66.75;102127.84;5049849;28;20037;-66
2021/08/27 07:56:14;;;;;;;4.80;1.90;;;;;;;16.75;66.40;102126.66;5043369;28;20115;-64
2021/08/27 07:58:39;;;;;;;5.05;2.00;;;;;;;16.86;67.05;102129.66;5050075;28;20492;-65
2021/08/27 08:01:05;;;;;;;8.07;2.20;;;;;;;16.97;65.12;102130.97;5049215;28;20093;-66
2021/08/27 08:03:30;;;;;;;7.65;2.47;;;;;;;17.07;64.97;102128.69;5049776;28;20027;-65
2021/08/27 08:05:55;;;;;;;7.18;1.90;;;;;;;17.11;64.90;102130.25;5042769;28;20051;-66
2021/08/27 08:08:21;;;;;;;7.22;1.95;;;;;;;17.30;64.38;102133.72;5043767;28;20339;-66
2021/08/27 08:10:46;;;;;;;6.22;2.00;;;;;;;17.55;63.48;102126.19;5034039;28;20026;-64
2021/08/27 08:13:11;;;;;;;10.93;2.38;;;;;;;17.78;62.09;102133.84;5051504;28;20021;-66
2021/08/27 08:15:37;;;;;;;6.95;2.03;;;;;;;18.10;60.60;102136.56;5057642;28;20211;-64
2021/08/27 08:18:05;;;;;;;8.50;2.15;;;;;;;18.27;59.99;102129.41;5046114;28;20080;-64
2021/08/27 08:20:30;;;;;;;6.13;2.20;;;;;;;18.39;58.02;102128.69;5044706;28;20543;-66
2021/08/27 08:22:57;;;;;;;8.65;2.50;;;;;;;18.30;58.70;102123.84;5027157;28;20049;-65
2021/08/27 08:25:23;;;;;;;8.23;2.42;;;;;;;18.15;58.94;102125.59;5049678;28;20075;-65
2021/08/27 08:27:48;;;;;;;6.38;2.25;;;;;;;18.24;60.40;102130.44;5055909;28;20104;-65
2021/08/27 08:30:14;;;;;;;6.47;2.53;;;;;;;18.46;59.32;102130.06;5053302;28;20380;-65
2021/08/27 08:32:39;;;;;;;5.53;2.22;;;;;;;18.59;57.20;102124.84;5069379;28;20028;-66
2021/08/27 08:35:06;;;;;;;7.95;2.05;;;;;;;18.34;57.41;102136.16;5062555;28;20020;-66
2021/08/27 08:37:31;;;;;;;9.70;2.60;;;;;;;18.28;58.15;102136.50;5050281;28;20465;-66
2021/08/27 08:39:56;;;;;;;8.32;2.70;;;;;;;18.33;57.47;102137.09;5049252;28;20105;-64
2021/08/27 08:42:22;;;;;;;6.22;2.47;;;;;;;18.40;57.52;102141.16;5057189;28;20145;-66
2021/08/27 08:44:48;;;;;;;6.97;2.08;;;;;;;18.48;56.68;102144.25;5053496;28;20074;-65
2021/08/27 08:47:16;;;;;;;11.98;2.83;;;;;;;18.51;57.36;102132.50;5044599;28;20052;-65
2021/08/27 08:49:43;;;;;;;7.95;2.40;;;;;;;18.41;57.01;102139.34;5039894;28;20212;-65
2021/08/27 08:52:09;;;;;;;7.85;2.75;;;;;;;18.31;58.32;102144.34;5049405;28;20103;-65
2021/08/27 08:54:35;;;;;;;6.72;2.80;;;;;;;18.32;57.72;102140.72;5041305;28;20453;-67
2021/08/27 08:57:01;;;;;;;5.15;2.13;;;;;;;18.40;58.22;102142.97;5048352;28;20071;-66
2021/08/27 08:59:26;;;;;;;8.30;2.65;;;;;;;18.33;58.81;102137.09;5048952;28;20120;-64
2021/08/27 09:01:52;;;;;;;11.20;2.30;;;;;;;18.29;59.90;102147.13;5049143;28;20023;-64
2021/08/27 09:04:17;;;;;;;10.10;2.63;;;;;;;18.22;60.31;102142.19;5044186;28;20110;-67
2021/08/27 09:06:42;;;;;;;8.82;2.33;;;;;;;18.13;58.97;102139.09;5045465;28;20029;-65
2021/08/27 09:09:08;;;;;;;6.72;2.10;;;;;;;18.01;59.24;102137.94;5050868;28;20051;-66
2021/08/27 09:11:33;;;;;;;12.30;2.45;;;;;;;17.98;58.91;102143.50;5049575;28;20131;-67
2021/08/27 09:14:05;;;;;;;6.35;2.58;;;;;;;18.02;59.57;102146.88;5054567;28;20039;-66
2021/08/27 09:16:33;;;;;;;8.52;2.53;;;;;;;18.15;59.70;102144.38;5061271;28;20106;-65
2021/08/27 09:19:00;;;;;;;6.60;2.33;;;;;;;18.32;58.66;102144.25;5048127;28;20509;-64
2021/08/27 09:21:45;;;;;;;10.60;3.28;;;;;;;18.51;58.48;102138.69;5052841;28;20186;-64
2021/08/27 09:24:17;;;;;;;6.03;2.83;;;;;;;18.51;58.76;102140.53;5065966;28;20094;-64
2021/08/27 09:26:45;;;;;;;10.65;2.75;;;;;;;18.53;59.14;102132.38;5068646;28;20040;-65
2021/08/27 09:29:31;;;;;;;8.63;2.83;;;;;;;20.08;54.33;102146.28;5060067;28;20143;-66
2021/08/27 09:31:56;;;;;;;8.27;2.60;;;;;;;21.18;51.10;102128.25;5057813;28;20032;-65
2021/08/27 09:34:27;;;;;;;8.55;2.60;;;;;;;21.51;50.46;102128.66;5060797;28;20052;-65
2021/08/27 09:36:57;;;;;;;5.90;2.38;;;;;;;21.88;48.65;102137.72;5062614;28;20060;-67
2021/08/27 09:39:31;;;;;;;7.80;2.45;;;;;;;21.94;48.54;102136.41;5048345;28;20046;-67
2021/08/27 09:41:57;;;;;;;6.47;2.30;;;;;;;21.45;48.82;102133.53;5061347;28;20028;-65
2021/08/27 09:44:23;;;;;;;10.30;2.63;;;;;;;21.59;47.31;102134.41;5067225;28;20341;-66
2021/08/27 09:46:49;;;;;;;7.82;2.50;;;;;;;21.73;47.56;102134.28;5063210;28;20078;-68
2021/08/27 09:49:25;;;;;;;8.82;2.63;;;;;;;22.53;46.48;102133.00;5050378;28;20025;-63
2021/08/27 09:51:51;;;;;;;7.72;2.25;;;;;;;23.15;44.02;102127.47;5068261;28;20032;-64
2021/08/27 09:54:27;;;;;;;9.10;2.42;;;;;;;22.99;43.72;102130.44;5058796;28;20480;-63
2021/08/27 09:56:55;;;;;;;6.43;2.20;;;;;;;22.57;44.72;102128.19;5047432;28;20426;-64
2021/08/27 09:59:40;;;;;;;11.50;2.60;;;;;;;22.05;45.39;102128.38;5057650;28;20036;-63
2021/08/27 10:02:08;;;;;;;9.38;2.40;;;;;;;22.64;43.46;102136.72;5083112;28;20024;-65
2021/08/27 10:04:35;;;;;;;8.73;2.55;;;;;;;23.05;41.88;102129.97;5068197;28;20124;-63
2021/08/27 10:07:01;;;;;;;5.15;2.28;;;;;;;23.59;42.21;102125.75;5066355;28;20063;-64
2021/08/27 10:09:46;;;;;;;10.95;2.55;;;;;;;23.52;41.25;102128.09;5063820;28;20097;-63
2021/08/27 10:12:12;;;;;;;6.85;2.70;;;;;;;23.72;41.50;102136.44;5055612;28;20142;-64
2021/08/27 10:14:38;;;;;;;8.70;2.47;;;;;;;23.74;42.17;102120.97;5059295;28;20119;-66
2021/08/27 10:17:04;;;;;;;9.77;2.40;;;;;;;23.89;40.96;102116.16;5061380;28;20103;-66
2021/08/27 10:19:31;;;;;;;9.95;2.40;;;;;;;24.32;38.90;102126.19;5059522;28;20035;-66
2021/08/27 10:21:56;;;;;;;10.60;2.97;;;;;;;24.05;40.82;102121.19;5080669;28;20134;-67
2021/08/27 10:24:21;;;;;;;7.97;2.28;;;;;;;24.40;40.25;102133.66;5088316;28;20044;-68
2021/08/27 10:26:47;;;;;;;7.05;2.30;;;;;;;24.64;40.26;102114.53;5082669;28;20052;-64
2021/08/27 10:29:13;;;;;;;6.85;2.40;;;;;;;23.11;42.74;102131.31;5072402;28;20094;-67
2021/08/27 10:31:41;;;;;;;8.30;2.50;;;;;;;23.08;44.02;102114.38;5071341;28;20032;-66
2021/08/27 10:34:06;;;;;;;7.97;2.20;;;;;;;23.87;42.08;102112.72;5083030;28;20116;-67
2021/08/27 10:36:32;;;;;;;6.97;2.30;;;;;;;24.50;40.28;102125.63;5082800;28;20050;-67
2021/08/27 10:38:59;;;;;;;8.00;2.50;;;;;;;24.26;39.40;102126.69;5086719;28;20138;-66
2021/08/27 10:41:39;;;;;;;7.50;2.20;;;;;;;24.21;40.61;102112.69;5075391;28;20281;-65
2021/08/27 10:44:06;;;;;;;9.15;2.30;;;;;;;24.20;39.23;102116.38;5076662;28;20055;-67
2021/08/27 10:46:46;;;;;;;6.97;2.35;;;;;;;24.39;40.68;102113.00;5068647;28;20108;-64
2021/08/27 10:49:24;;;;;;;9.63;2.25;;;;;;;24.73;40.03;102104.72;5077153;28;20076;-67
2021/08/27 10:51:53;;;;;;;7.82;2.25;;;;;;;24.21;40.19;102120.81;5067685;28;20047;-64
2021/08/27 10:54:18;;;;;;;7.85;2.63;;;;;;;24.36;40.79;102107.81;5067008;28;20077;-64
2021/08/27 10:56:51;;;;;;;7.95;2.30;;;;;;;24.84;41.41;102110.09;5068136;28;20043;-65
2021/08/27 10:59:21;;;;;;;6.68;2.38;;;;;;;24.53;40.04;102111.84;5069467;28;20028;-63
2021/08/27 11:02:00;;;;;;;8.95;2.25;;;;;;;24.97;40.07;102109.03;5067550;28;20089;-64
2021/08/27 11:04:30;;;;;;;9.02;2.25;;;;;;;24.44;38.62;102113.47;5069186;28;20104;-66
2021/08/27 11:07:17;;;;;;;8.83;1.97;;;;;;;24.35;38.80;102109.69;5084313;28;20036;-66
2021/08/27 11:09:59;;;;;;;5.30;1.90;;;;;;;25.43;38.40;102110.47;5068454;28;20447;-66
2021/08/27 11:12:29;;;;;;;8.48;2.30;;;;;;;24.78;39.07;102104.34;5049362;28;20055;-66
2021/08/27 11:14:55;;;;;;;7.43;1.90;;;;;;;24.84;38.91;102109.25;5059912;28;20091;-67
2021/08/27 11:17:22;;;;;;;7.43;2.33;;;;;;;24.73;38.84;102112.84;5067470;28;20622;-66
2021/08/27 11:19:58;;;;;;;8.93;2.20;;;;;;;25.11;38.83;102110.56;5075793;28;20102;-63
2021/08/27 11:22:29;;;;;;;9.43;2.28;;;;;;;25.45;39.71;102113.03;5087499;28;20031;-65
2021/08/27 11:25:17;;;;;;;6.68;2.00;;;;;;;26.02;37.49;102102.50;5083204;28;20036;-67
2021/08/27 11:28:17;;;;;;;6.32;2.05;;;;;;;25.39;38.77;102110.88;5088363;28;20063;-65